sensor_id;sensor_type;location;lat;lon;timestamp;P1;durP1;ratioP1;P2;durP2;ratioP2
7699;SDS011;3892;47.794;19.126;2023-07-16T00:00:05;6.43;;;5.20;;
7699;SDS011;3892;47.794;19.126;2023-07-16T00:02:35;17.23;;;15.53;;
7699;SDS011;3892;47.794;19.126;2023-07-16T00:05:06;11.47;;;10.47;;
7699;SDS011;3892;47.794;19.126;2023-07-16T00:07:34;5.10;;;4.60;;
7699;SDS011;3892;47.794;19.126;2023-07-16T00:10:03;7.50;;;5.33;;
7699;SDS011;3892;47.794;19.126;2023-07-16T00:12:31;6.50;;;5.13;;
7699;SDS011;3892;47.794;19.126;2023-07-16T00:14:59;6.53;;;4.33;;
7699;SDS011;3892;47.794;19.126;2023-07-16T00:17:28;5.13;;;4.47;;
7699;SDS011;3892;47.794;19.126;2023-07-16T00:19:56;5.37;;;4.23;;
7699;SDS011;3892;47.794;19.126;2023-07-16T00:22:25;5.57;;;4.83;;
7699;SDS011;3892;47.794;19.126;2023-07-16T00:24:53;4.83;;;4.33;;
7699;SDS011;3892;47.794;19.126;2023-07-16T00:27:21;6.07;;;4.20;;
7699;SDS011;3892;47.794;19.126;2023-07-16T00:29:49;7.23;;;6.43;;
7699;SDS011;3892;47.794;19.126;2023-07-16T00:32:17;11.03;;;9.93;;
7699;SDS011;3892;47.794;19.126;2023-07-16T00:34:46;9.47;;;6.80;;
7699;SDS011;3892;47.794;19.126;2023-07-16T00:37:14;6.17;;;4.87;;
7699;SDS011;3892;47.794;19.126;2023-07-16T00:39:43;6.43;;;4.83;;
7699;SDS011;3892;47.794;19.126;2023-07-16T00:42:11;5.40;;;4.93;;
7699;SDS011;3892;47.794;19.126;2023-07-16T00:44:40;6.83;;;5.53;;
7699;SDS011;3892;47.794;19.126;2023-07-16T00:47:08;6.17;;;5.57;;
7699;SDS011;3892;47.794;19.126;2023-07-16T00:49:36;8.37;;;6.70;;
7699;SDS011;3892;47.794;19.126;2023-07-16T00:52:06;7.33;;;6.63;;
7699;SDS011;3892;47.794;19.126;2023-07-16T00:54:37;10.40;;;8.30;;
7699;SDS011;3892;47.794;19.126;2023-07-16T00:57:07;8.07;;;7.10;;
7699;SDS011;3892;47.794;19.126;2023-07-16T00:59:35;7.70;;;7.00;;
7699;SDS011;3892;47.794;19.126;2023-07-16T01:02:03;9.17;;;7.23;;
7699;SDS011;3892;47.794;19.126;2023-07-16T01:04:32;8.00;;;7.03;;
7699;SDS011;3892;47.794;19.126;2023-07-16T01:07:01;7.13;;;6.53;;
7699;SDS011;3892;47.794;19.126;2023-07-16T01:09:34;7.60;;;6.90;;
7699;SDS011;3892;47.794;19.126;2023-07-16T01:12:04;7.30;;;6.47;;
7699;SDS011;3892;47.794;19.126;2023-07-16T01:14:35;7.63;;;6.90;;
7699;SDS011;3892;47.794;19.126;2023-07-16T01:17:03;7.10;;;6.07;;
7699;SDS011;3892;47.794;19.126;2023-07-16T01:19:33;8.57;;;5.97;;
7699;SDS011;3892;47.794;19.126;2023-07-16T01:22:05;7.53;;;6.73;;
7699;SDS011;3892;47.794;19.126;2023-07-16T01:24:48;8.63;;;7.33;;
7699;SDS011;3892;47.794;19.126;2023-07-16T01:27:34;7.67;;;6.90;;
7699;SDS011;3892;47.794;19.126;2023-07-16T01:30:26;6.13;;;5.53;;
7699;SDS011;3892;47.794;19.126;2023-07-16T01:32:55;6.33;;;5.73;;
7699;SDS011;3892;47.794;19.126;2023-07-16T01:35:24;5.80;;;5.20;;
7699;SDS011;3892;47.794;19.126;2023-07-16T01:37:53;6.30;;;5.57;;
7699;SDS011;3892;47.794;19.126;2023-07-16T01:40:21;5.87;;;5.37;;
7699;SDS011;3892;47.794;19.126;2023-07-16T01:42:50;5.87;;;5.20;;
7699;SDS011;3892;47.794;19.126;2023-07-16T01:45:18;6.70;;;4.77;;
7699;SDS011;3892;47.794;19.126;2023-07-16T01:47:49;5.57;;;4.67;;
7699;SDS011;3892;47.794;19.126;2023-07-16T01:50:26;7.93;;;4.80;;
7699;SDS011;3892;47.794;19.126;2023-07-16T01:52:54;4.90;;;4.53;;
7699;SDS011;3892;47.794;19.126;2023-07-16T01:55:22;4.97;;;4.47;;
7699;SDS011;3892;47.794;19.126;2023-07-16T01:57:50;6.00;;;3.93;;
7699;SDS011;3892;47.794;19.126;2023-07-16T02:00:19;4.60;;;4.20;;
7699;SDS011;3892;47.794;19.126;2023-07-16T02:02:48;7.63;;;4.40;;
7699;SDS011;3892;47.794;19.126;2023-07-16T02:05:16;5.23;;;4.20;;
7699;SDS011;3892;47.794;19.126;2023-07-16T02:07:44;4.47;;;4.03;;
7699;SDS011;3892;47.794;19.126;2023-07-16T02:10:12;5.73;;;4.30;;
7699;SDS011;3892;47.794;19.126;2023-07-16T02:12:41;5.77;;;4.33;;
7699;SDS011;3892;47.794;19.126;2023-07-16T02:15:09;4.43;;;4.03;;
7699;SDS011;3892;47.794;19.126;2023-07-16T02:17:37;4.93;;;4.17;;
7699;SDS011;3892;47.794;19.126;2023-07-16T02:20:07;4.33;;;3.93;;
7699;SDS011;3892;47.794;19.126;2023-07-16T02:22:37;4.50;;;4.10;;
7699;SDS011;3892;47.794;19.126;2023-07-16T02:25:05;5.33;;;4.20;;
7699;SDS011;3892;47.794;19.126;2023-07-16T02:27:34;4.83;;;4.43;;
7699;SDS011;3892;47.794;19.126;2023-07-16T02:30:02;6.20;;;5.30;;
7699;SDS011;3892;47.794;19.126;2023-07-16T02:32:32;6.80;;;5.83;;
7699;SDS011;3892;47.794;19.126;2023-07-16T02:35:00;9.83;;;5.70;;
7699;SDS011;3892;47.794;19.126;2023-07-16T02:37:30;7.23;;;5.33;;
7699;SDS011;3892;47.794;19.126;2023-07-16T02:39:59;5.50;;;5.10;;
7699;SDS011;3892;47.794;19.126;2023-07-16T02:42:27;5.80;;;5.20;;
7699;SDS011;3892;47.794;19.126;2023-07-16T02:44:55;6.10;;;5.50;;
7699;SDS011;3892;47.794;19.126;2023-07-16T02:47:23;6.13;;;5.00;;
7699;SDS011;3892;47.794;19.126;2023-07-16T02:49:51;9.00;;;5.70;;
7699;SDS011;3892;47.794;19.126;2023-07-16T02:52:19;10.97;;;7.00;;
7699;SDS011;3892;47.794;19.126;2023-07-16T02:54:48;6.67;;;5.77;;
7699;SDS011;3892;47.794;19.126;2023-07-16T02:57:17;5.10;;;4.60;;
7699;SDS011;3892;47.794;19.126;2023-07-16T02:59:45;6.53;;;4.83;;
7699;SDS011;3892;47.794;19.126;2023-07-16T03:02:13;4.77;;;4.37;;
7699;SDS011;3892;47.794;19.126;2023-07-16T03:04:41;4.70;;;4.30;;
7699;SDS011;3892;47.794;19.126;2023-07-16T03:07:09;6.43;;;4.60;;
7699;SDS011;3892;47.794;19.126;2023-07-16T03:09:37;4.60;;;4.20;;
7699;SDS011;3892;47.794;19.126;2023-07-16T03:12:07;4.77;;;4.20;;
7699;SDS011;3892;47.794;19.126;2023-07-16T03:14:35;6.83;;;4.30;;
7699;SDS011;3892;47.794;19.126;2023-07-16T03:17:04;4.53;;;4.20;;
7699;SDS011;3892;47.794;19.126;2023-07-16T03:19:33;4.40;;;4.00;;
7699;SDS011;3892;47.794;19.126;2023-07-16T03:22:01;4.87;;;4.37;;
7699;SDS011;3892;47.794;19.126;2023-07-16T03:24:29;5.63;;;4.53;;
7699;SDS011;3892;47.794;19.126;2023-07-16T03:26:57;6.83;;;4.60;;
7699;SDS011;3892;47.794;19.126;2023-07-16T03:29:32;4.97;;;4.43;;
7699;SDS011;3892;47.794;19.126;2023-07-16T03:32:00;5.57;;;4.60;;
7699;SDS011;3892;47.794;19.126;2023-07-16T03:34:28;6.63;;;4.57;;
7699;SDS011;3892;47.794;19.126;2023-07-16T03:36:56;6.03;;;4.33;;
7699;SDS011;3892;47.794;19.126;2023-07-16T03:39:24;6.07;;;4.17;;
7699;SDS011;3892;47.794;19.126;2023-07-16T03:41:52;5.70;;;4.87;;
7699;SDS011;3892;47.794;19.126;2023-07-16T03:44:20;8.73;;;5.07;;
7699;SDS011;3892;47.794;19.126;2023-07-16T03:46:50;5.30;;;4.90;;
7699;SDS011;3892;47.794;19.126;2023-07-16T03:49:18;5.70;;;4.70;;
7699;SDS011;3892;47.794;19.126;2023-07-16T03:51:46;5.33;;;4.70;;
7699;SDS011;3892;47.794;19.126;2023-07-16T03:54:14;8.30;;;4.93;;
7699;SDS011;3892;47.794;19.126;2023-07-16T03:56:42;5.37;;;4.70;;
7699;SDS011;3892;47.794;19.126;2023-07-16T03:59:10;5.93;;;5.10;;
7699;SDS011;3892;47.794;19.126;2023-07-16T04:01:38;5.83;;;4.70;;
7699;SDS011;3892;47.794;19.126;2023-07-16T04:04:07;5.10;;;4.60;;
7699;SDS011;3892;47.794;19.126;2023-07-16T04:06:35;4.70;;;4.30;;
7699;SDS011;3892;47.794;19.126;2023-07-16T04:09:04;5.60;;;4.53;;
7699;SDS011;3892;47.794;19.126;2023-07-16T04:11:32;4.90;;;4.50;;
7699;SDS011;3892;47.794;19.126;2023-07-16T04:14:00;5.20;;;4.47;;
7699;SDS011;3892;47.794;19.126;2023-07-16T04:16:28;6.53;;;4.60;;
7699;SDS011;3892;47.794;19.126;2023-07-16T04:18:56;6.33;;;4.20;;
7699;SDS011;3892;47.794;19.126;2023-07-16T04:21:25;6.40;;;4.80;;
7699;SDS011;3892;47.794;19.126;2023-07-16T04:23:53;4.73;;;4.07;;
7699;SDS011;3892;47.794;19.126;2023-07-16T04:26:21;7.43;;;4.53;;
7699;SDS011;3892;47.794;19.126;2023-07-16T04:28:49;6.00;;;4.47;;
7699;SDS011;3892;47.794;19.126;2023-07-16T04:31:18;5.03;;;4.27;;
7699;SDS011;3892;47.794;19.126;2023-07-16T04:33:46;6.73;;;4.50;;
7699;SDS011;3892;47.794;19.126;2023-07-16T04:36:14;6.23;;;5.00;;
7699;SDS011;3892;47.794;19.126;2023-07-16T04:38:44;4.97;;;4.47;;
7699;SDS011;3892;47.794;19.126;2023-07-16T04:41:12;5.67;;;4.97;;
7699;SDS011;3892;47.794;19.126;2023-07-16T04:43:40;5.73;;;4.80;;
7699;SDS011;3892;47.794;19.126;2023-07-16T04:46:08;4.50;;;4.10;;
7699;SDS011;3892;47.794;19.126;2023-07-16T04:48:38;4.80;;;4.40;;
7699;SDS011;3892;47.794;19.126;2023-07-16T04:51:06;6.40;;;5.23;;
7699;SDS011;3892;47.794;19.126;2023-07-16T04:53:34;4.97;;;4.57;;
7699;SDS011;3892;47.794;19.126;2023-07-16T04:56:03;6.73;;;4.90;;
7699;SDS011;3892;47.794;19.126;2023-07-16T04:58:36;9.00;;;4.90;;
7699;SDS011;3892;47.794;19.126;2023-07-16T05:01:04;4.70;;;4.17;;
7699;SDS011;3892;47.794;19.126;2023-07-16T05:03:32;7.00;;;4.47;;
7699;SDS011;3892;47.794;19.126;2023-07-16T05:06:00;6.13;;;4.33;;
7699;SDS011;3892;47.794;19.126;2023-07-16T05:08:28;8.00;;;4.50;;
7699;SDS011;3892;47.794;19.126;2023-07-16T05:10:56;5.03;;;3.87;;
7699;SDS011;3892;47.794;19.126;2023-07-16T05:13:26;8.13;;;4.40;;
7699;SDS011;3892;47.794;19.126;2023-07-16T05:15:54;5.87;;;4.30;;
7699;SDS011;3892;47.794;19.126;2023-07-16T05:18:22;4.27;;;3.73;;
7699;SDS011;3892;47.794;19.126;2023-07-16T05:20:51;6.10;;;4.07;;
7699;SDS011;3892;47.794;19.126;2023-07-16T05:23:19;5.93;;;4.43;;
7699;SDS011;3892;47.794;19.126;2023-07-16T05:25:47;5.53;;;3.90;;
7699;SDS011;3892;47.794;19.126;2023-07-16T05:28:16;4.87;;;3.80;;
7699;SDS011;3892;47.794;19.126;2023-07-16T05:30:46;3.60;;;3.30;;
7699;SDS011;3892;47.794;19.126;2023-07-16T05:33:14;7.77;;;3.40;;
7699;SDS011;3892;47.794;19.126;2023-07-16T05:35:42;7.70;;;3.47;;
7699;SDS011;3892;47.794;19.126;2023-07-16T05:38:15;4.60;;;3.47;;
7699;SDS011;3892;47.794;19.126;2023-07-16T05:40:44;3.73;;;3.27;;
7699;SDS011;3892;47.794;19.126;2023-07-16T05:43:12;4.43;;;3.60;;
7699;SDS011;3892;47.794;19.126;2023-07-16T05:45:41;4.67;;;3.67;;
7699;SDS011;3892;47.794;19.126;2023-07-16T05:48:10;6.63;;;4.03;;
7699;SDS011;3892;47.794;19.126;2023-07-16T05:50:38;4.63;;;4.23;;
7699;SDS011;3892;47.794;19.126;2023-07-16T05:53:06;8.17;;;4.20;;
7699;SDS011;3892;47.794;19.126;2023-07-16T05:55:34;4.40;;;4.00;;
7699;SDS011;3892;47.794;19.126;2023-07-16T05:58:02;4.50;;;4.10;;
7699;SDS011;3892;47.794;19.126;2023-07-16T06:00:31;7.53;;;4.40;;
7699;SDS011;3892;47.794;19.126;2023-07-16T06:02:59;6.83;;;4.33;;
7699;SDS011;3892;47.794;19.126;2023-07-16T06:05:29;7.33;;;4.70;;
7699;SDS011;3892;47.794;19.126;2023-07-16T06:07:58;6.00;;;4.33;;
7699;SDS011;3892;47.794;19.126;2023-07-16T06:10:26;7.67;;;4.40;;
7699;SDS011;3892;47.794;19.126;2023-07-16T06:12:54;4.83;;;4.03;;
7699;SDS011;3892;47.794;19.126;2023-07-16T06:15:23;5.20;;;4.17;;
7699;SDS011;3892;47.794;19.126;2023-07-16T06:17:51;7.37;;;4.07;;
7699;SDS011;3892;47.794;19.126;2023-07-16T06:20:19;5.13;;;4.60;;
7699;SDS011;3892;47.794;19.126;2023-07-16T06:22:48;4.30;;;4.00;;
7699;SDS011;3892;47.794;19.126;2023-07-16T06:25:16;5.07;;;4.20;;
7699;SDS011;3892;47.794;19.126;2023-07-16T06:27:44;5.40;;;3.87;;
7699;SDS011;3892;47.794;19.126;2023-07-16T06:30:13;6.53;;;4.40;;
7699;SDS011;3892;47.794;19.126;2023-07-16T06:32:41;3.97;;;3.60;;
7699;SDS011;3892;47.794;19.126;2023-07-16T06:35:09;6.00;;;4.50;;
7699;SDS011;3892;47.794;19.126;2023-07-16T06:37:37;5.70;;;3.83;;
7699;SDS011;3892;47.794;19.126;2023-07-16T06:40:07;4.57;;;3.80;;
7699;SDS011;3892;47.794;19.126;2023-07-16T06:42:36;3.80;;;3.50;;
7699;SDS011;3892;47.794;19.126;2023-07-16T06:45:04;3.87;;;3.50;;
7699;SDS011;3892;47.794;19.126;2023-07-16T06:47:33;6.50;;;3.70;;
7699;SDS011;3892;47.794;19.126;2023-07-16T06:50:01;5.13;;;3.50;;
7699;SDS011;3892;47.794;19.126;2023-07-16T06:52:29;5.73;;;3.73;;
7699;SDS011;3892;47.794;19.126;2023-07-16T06:54:57;4.83;;;3.60;;
7699;SDS011;3892;47.794;19.126;2023-07-16T06:57:27;6.27;;;4.00;;
7699;SDS011;3892;47.794;19.126;2023-07-16T06:59:55;5.30;;;3.90;;
7699;SDS011;3892;47.794;19.126;2023-07-16T07:02:23;5.93;;;4.30;;
7699;SDS011;3892;47.794;19.126;2023-07-16T07:04:51;5.27;;;3.70;;
7699;SDS011;3892;47.794;19.126;2023-07-16T07:07:20;4.70;;;3.70;;
7699;SDS011;3892;47.794;19.126;2023-07-16T07:09:48;4.53;;;3.83;;
7699;SDS011;3892;47.794;19.126;2023-07-16T07:12:16;4.73;;;3.90;;
7699;SDS011;3892;47.794;19.126;2023-07-16T07:14:47;5.00;;;3.37;;
7699;SDS011;3892;47.794;19.126;2023-07-16T07:17:15;6.03;;;3.50;;
7699;SDS011;3892;47.794;19.126;2023-07-16T07:19:43;4.23;;;3.50;;
7699;SDS011;3892;47.794;19.126;2023-07-16T07:22:11;4.13;;;3.43;;
7699;SDS011;3892;47.794;19.126;2023-07-16T07:24:39;4.50;;;4.07;;
7699;SDS011;3892;47.794;19.126;2023-07-16T07:27:07;4.90;;;3.70;;
7699;SDS011;3892;47.794;19.126;2023-07-16T07:29:35;5.03;;;3.87;;
7699;SDS011;3892;47.794;19.126;2023-07-16T07:32:05;4.70;;;4.10;;
7699;SDS011;3892;47.794;19.126;2023-07-16T07:34:34;6.17;;;5.67;;
7699;SDS011;3892;47.794;19.126;2023-07-16T07:37:03;5.40;;;3.60;;
7699;SDS011;3892;47.794;19.126;2023-07-16T07:39:31;4.20;;;3.80;;
7699;SDS011;3892;47.794;19.126;2023-07-16T07:41:59;6.67;;;3.40;;
7699;SDS011;3892;47.794;19.126;2023-07-16T07:44:27;5.93;;;3.70;;
7699;SDS011;3892;47.794;19.126;2023-07-16T07:46:55;5.03;;;3.73;;
7699;SDS011;3892;47.794;19.126;2023-07-16T07:49:24;8.43;;;4.03;;
7699;SDS011;3892;47.794;19.126;2023-07-16T07:51:53;5.37;;;3.43;;
7699;SDS011;3892;47.794;19.126;2023-07-16T07:54:21;6.87;;;3.93;;
7699;SDS011;3892;47.794;19.126;2023-07-16T07:56:49;5.13;;;3.37;;
7699;SDS011;3892;47.794;19.126;2023-07-16T07:59:17;4.17;;;3.30;;
7699;SDS011;3892;47.794;19.126;2023-07-16T08:01:45;4.07;;;3.67;;
7699;SDS011;3892;47.794;19.126;2023-07-16T08:04:14;5.00;;;3.63;;
7699;SDS011;3892;47.794;19.126;2023-07-16T08:06:43;4.67;;;3.50;;
7699;SDS011;3892;47.794;19.126;2023-07-16T08:09:11;4.33;;;3.40;;
7699;SDS011;3892;47.794;19.126;2023-07-16T08:11:39;4.57;;;3.70;;
7699;SDS011;3892;47.794;19.126;2023-07-16T08:14:07;4.20;;;3.53;;
7699;SDS011;3892;47.794;19.126;2023-07-16T08:16:35;5.60;;;4.40;;
7699;SDS011;3892;47.794;19.126;2023-07-16T08:19:03;5.87;;;3.70;;
7699;SDS011;3892;47.794;19.126;2023-07-16T08:21:31;7.40;;;4.23;;
7699;SDS011;3892;47.794;19.126;2023-07-16T08:24:01;5.40;;;3.57;;
7699;SDS011;3892;47.794;19.126;2023-07-16T08:26:29;4.97;;;3.50;;
7699;SDS011;3892;47.794;19.126;2023-07-16T08:28:57;5.17;;;3.80;;
7699;SDS011;3892;47.794;19.126;2023-07-16T08:31:27;3.93;;;3.30;;
7699;SDS011;3892;47.794;19.126;2023-07-16T08:33:55;5.03;;;3.30;;
7699;SDS011;3892;47.794;19.126;2023-07-16T08:36:23;4.50;;;3.70;;
7699;SDS011;3892;47.794;19.126;2023-07-16T08:38:51;6.13;;;3.63;;
7699;SDS011;3892;47.794;19.126;2023-07-16T08:41:21;6.63;;;3.88;;
7699;SDS011;3892;47.794;19.126;2023-07-16T08:43:49;6.07;;;3.73;;
7699;SDS011;3892;47.794;19.126;2023-07-16T08:46:18;4.40;;;3.77;;
7699;SDS011;3892;47.794;19.126;2023-07-16T08:48:46;6.73;;;3.80;;
7699;SDS011;3892;47.794;19.126;2023-07-16T08:51:15;3.60;;;3.30;;
7699;SDS011;3892;47.794;19.126;2023-07-16T08:53:44;4.28;;;3.88;;
7699;SDS011;3892;47.794;19.126;2023-07-16T08:56:13;4.70;;;3.97;;
7699;SDS011;3892;47.794;19.126;2023-07-16T08:58:43;4.40;;;3.90;;
7699;SDS011;3892;47.794;19.126;2023-07-16T09:01:11;5.90;;;3.75;;
7699;SDS011;3892;47.794;19.126;2023-07-16T09:03:40;6.60;;;4.17;;
7699;SDS011;3892;47.794;19.126;2023-07-16T09:06:08;4.13;;;3.72;;
7699;SDS011;3892;47.794;19.126;2023-07-16T09:08:36;4.22;;;3.50;;
7699;SDS011;3892;47.794;19.126;2023-07-16T09:11:04;8.13;;;4.10;;
7699;SDS011;3892;47.794;19.126;2023-07-16T09:13:32;4.97;;;3.72;;
7699;SDS011;3892;47.794;19.126;2023-07-16T09:16:02;6.78;;;3.50;;
7699;SDS011;3892;47.794;19.126;2023-07-16T09:18:30;6.70;;;3.53;;
7699;SDS011;3892;47.794;19.126;2023-07-16T09:20:59;11.23;;;3.97;;
7699;SDS011;3892;47.794;19.126;2023-07-16T09:23:29;5.85;;;4.05;;
7699;SDS011;3892;47.794;19.126;2023-07-16T09:25:58;3.75;;;3.30;;
7699;SDS011;3892;47.794;19.126;2023-07-16T09:28:26;5.43;;;3.53;;
7699;SDS011;3892;47.794;19.126;2023-07-16T09:30:54;5.93;;;3.83;;
7699;SDS011;3892;47.794;19.126;2023-07-16T09:33:24;7.60;;;3.78;;
7699;SDS011;3892;47.794;19.126;2023-07-16T09:35:54;7.03;;;3.58;;
7699;SDS011;3892;47.794;19.126;2023-07-16T09:38:22;4.53;;;3.75;;
7699;SDS011;3892;47.794;19.126;2023-07-16T09:40:51;3.95;;;3.60;;
7699;SDS011;3892;47.794;19.126;2023-07-16T09:43:21;5.75;;;3.60;;
7699;SDS011;3892;47.794;19.126;2023-07-16T09:45:49;5.57;;;3.67;;
7699;SDS011;3892;47.794;19.126;2023-07-16T09:48:17;3.75;;;3.33;;
7699;SDS011;3892;47.794;19.126;2023-07-16T09:50:49;6.28;;;3.42;;
7699;SDS011;3892;47.794;19.126;2023-07-16T09:53:19;4.35;;;3.95;;
7699;SDS011;3892;47.794;19.126;2023-07-16T09:55:48;5.22;;;4.00;;
7699;SDS011;3892;47.794;19.126;2023-07-16T09:58:18;6.22;;;3.97;;
7699;SDS011;3892;47.794;19.126;2023-07-16T10:00:49;6.32;;;3.72;;
7699;SDS011;3892;47.794;19.126;2023-07-16T10:03:17;4.28;;;3.83;;
7699;SDS011;3892;47.794;19.126;2023-07-16T10:05:47;11.57;;;8.32;;
7699;SDS011;3892;47.794;19.126;2023-07-16T10:08:18;6.80;;;4.13;;
7699;SDS011;3892;47.794;19.126;2023-07-16T10:10:48;5.28;;;4.20;;
7699;SDS011;3892;47.794;19.126;2023-07-16T10:13:21;5.93;;;4.00;;
7699;SDS011;3892;47.794;19.126;2023-07-16T10:15:51;5.90;;;4.13;;
7699;SDS011;3892;47.794;19.126;2023-07-16T10:18:27;5.97;;;4.57;;
7699;SDS011;3892;47.794;19.126;2023-07-16T10:21:02;6.78;;;4.13;;
7699;SDS011;3892;47.794;19.126;2023-07-16T10:23:38;4.63;;;4.13;;
7699;SDS011;3892;47.794;19.126;2023-07-16T10:26:08;5.88;;;4.72;;
7699;SDS011;3892;47.794;19.126;2023-07-16T10:28:39;7.25;;;4.65;;
7699;SDS011;3892;47.794;19.126;2023-07-16T10:31:16;6.50;;;4.07;;
7699;SDS011;3892;47.794;19.126;2023-07-16T10:33:55;5.90;;;5.10;;
7699;SDS011;3892;47.794;19.126;2023-07-16T10:36:28;6.60;;;4.47;;
7699;SDS011;3892;47.794;19.126;2023-07-16T10:39:01;6.43;;;4.50;;
7699;SDS011;3892;47.794;19.126;2023-07-16T10:41:31;6.45;;;4.60;;
7699;SDS011;3892;47.794;19.126;2023-07-16T10:44:00;5.32;;;4.80;;
7699;SDS011;3892;47.794;19.126;2023-07-16T10:46:30;5.88;;;4.38;;
7699;SDS011;3892;47.794;19.126;2023-07-16T10:48:58;8.50;;;4.72;;
7699;SDS011;3892;47.794;19.126;2023-07-16T10:51:28;4.97;;;4.30;;
7699;SDS011;3892;47.794;19.126;2023-07-16T10:53:56;6.30;;;4.53;;
7699;SDS011;3892;47.794;19.126;2023-07-16T10:56:25;5.82;;;4.65;;
7699;SDS011;3892;47.794;19.126;2023-07-16T10:58:53;5.32;;;4.70;;
7699;SDS011;3892;47.794;19.126;2023-07-16T11:01:21;6.68;;;5.65;;
7699;SDS011;3892;47.794;19.126;2023-07-16T11:03:49;6.07;;;5.03;;
7699;SDS011;3892;47.794;19.126;2023-07-16T11:06:18;7.95;;;6.15;;
7699;SDS011;3892;47.794;19.126;2023-07-16T11:08:48;6.75;;;5.05;;
7699;SDS011;3892;47.794;19.126;2023-07-16T11:11:26;8.93;;;6.50;;
7699;SDS011;3892;47.794;19.126;2023-07-16T11:13:55;8.02;;;5.15;;
7699;SDS011;3892;47.794;19.126;2023-07-16T11:16:23;7.07;;;4.90;;
7699;SDS011;3892;47.794;19.126;2023-07-16T11:18:51;5.82;;;5.32;;
7699;SDS011;3892;47.794;19.126;2023-07-16T11:21:20;6.10;;;5.30;;
7699;SDS011;3892;47.794;19.126;2023-07-16T11:23:49;6.13;;;5.05;;
7699;SDS011;3892;47.794;19.126;2023-07-16T11:26:17;6.80;;;5.30;;
7699;SDS011;3892;47.794;19.126;2023-07-16T11:28:45;7.10;;;5.40;;
7699;SDS011;3892;47.794;19.126;2023-07-16T11:31:17;9.90;;;5.10;;
7699;SDS011;3892;47.794;19.126;2023-07-16T11:33:46;6.43;;;5.90;;
7699;SDS011;3892;47.794;19.126;2023-07-16T11:36:16;6.35;;;5.75;;
7699;SDS011;3892;47.794;19.126;2023-07-16T11:38:44;7.95;;;5.35;;
7699;SDS011;3892;47.794;19.126;2023-07-16T11:41:13;6.70;;;5.70;;
7699;SDS011;3892;47.794;19.126;2023-07-16T11:43:42;6.68;;;5.75;;
7699;SDS011;3892;47.794;19.126;2023-07-16T11:46:14;6.07;;;5.57;;
7699;SDS011;3892;47.794;19.126;2023-07-16T11:48:44;6.80;;;6.18;;
7699;SDS011;3892;47.794;19.126;2023-07-16T11:51:12;7.38;;;6.68;;
7699;SDS011;3892;47.794;19.126;2023-07-16T11:53:40;7.65;;;6.53;;
7699;SDS011;3892;47.794;19.126;2023-07-16T11:56:08;8.45;;;6.32;;
7699;SDS011;3892;47.794;19.126;2023-07-16T11:58:37;6.90;;;6.20;;
7699;SDS011;3892;47.794;19.126;2023-07-16T12:01:05;6.82;;;6.13;;
7699;SDS011;3892;47.794;19.126;2023-07-16T12:03:33;6.80;;;6.20;;
7699;SDS011;3892;47.794;19.126;2023-07-16T12:06:02;6.57;;;6.07;;
7699;SDS011;3892;47.794;19.126;2023-07-16T12:08:31;6.43;;;5.82;;
7699;SDS011;3892;47.794;19.126;2023-07-16T12:11:00;7.57;;;5.90;;
7699;SDS011;3892;47.794;19.126;2023-07-16T12:13:29;6.85;;;6.30;;
7699;SDS011;3892;47.794;19.126;2023-07-16T12:15:58;7.75;;;6.50;;
7699;SDS011;3892;47.794;19.126;2023-07-16T12:18:26;6.43;;;5.88;;
7699;SDS011;3892;47.794;19.126;2023-07-16T12:20:56;7.47;;;6.63;;
7699;SDS011;3892;47.794;19.126;2023-07-16T12:23:24;7.47;;;6.82;;
7699;SDS011;3892;47.794;19.126;2023-07-16T12:25:53;7.75;;;6.95;;
7699;SDS011;3892;47.794;19.126;2023-07-16T12:28:21;7.35;;;6.68;;
7699;SDS011;3892;47.794;19.126;2023-07-16T12:30:49;7.88;;;7.05;;
7699;SDS011;3892;47.794;19.126;2023-07-16T12:33:18;9.15;;;7.13;;
7699;SDS011;3892;47.794;19.126;2023-07-16T12:35:46;7.50;;;6.88;;
7699;SDS011;3892;47.794;19.126;2023-07-16T12:38:14;9.00;;;7.25;;
7699;SDS011;3892;47.794;19.126;2023-07-16T12:40:42;8.05;;;7.25;;
7699;SDS011;3892;47.794;19.126;2023-07-16T12:43:11;8.60;;;7.40;;
7699;SDS011;3892;47.794;19.126;2023-07-16T12:45:39;8.35;;;7.50;;
7699;SDS011;3892;47.794;19.126;2023-07-16T12:48:07;8.95;;;8.05;;
7699;SDS011;3892;47.794;19.126;2023-07-16T12:50:37;8.43;;;7.35;;
7699;SDS011;3892;47.794;19.126;2023-07-16T12:53:05;8.93;;;8.13;;
7699;SDS011;3892;47.794;19.126;2023-07-16T12:55:33;9.27;;;7.88;;
7699;SDS011;3892;47.794;19.126;2023-07-16T12:58:01;9.48;;;8.13;;
7699;SDS011;3892;47.794;19.126;2023-07-16T13:00:29;9.13;;;7.50;;
7699;SDS011;3892;47.794;19.126;2023-07-16T13:02:58;10.15;;;8.95;;
7699;SDS011;3892;47.794;19.126;2023-07-16T13:05:26;8.55;;;7.50;;
7699;SDS011;3892;47.794;19.126;2023-07-16T13:07:57;9.57;;;7.93;;
7699;SDS011;3892;47.794;19.126;2023-07-16T13:10:25;8.50;;;7.30;;
7699;SDS011;3892;47.794;19.126;2023-07-16T13:12:53;8.45;;;7.60;;
7699;SDS011;3892;47.794;19.126;2023-07-16T13:15:22;11.23;;;7.50;;
7699;SDS011;3892;47.794;19.126;2023-07-16T13:17:50;9.15;;;6.97;;
7699;SDS011;3892;47.794;19.126;2023-07-16T13:20:18;9.60;;;7.75;;
7699;SDS011;3892;47.794;19.126;2023-07-16T13:22:50;9.10;;;8.23;;
7699;SDS011;3892;47.794;19.126;2023-07-16T13:25:20;9.10;;;8.20;;
7699;SDS011;3892;47.794;19.126;2023-07-16T13:27:49;8.93;;;7.65;;
7699;SDS011;3892;47.794;19.126;2023-07-16T13:30:19;9.23;;;8.32;;
7699;SDS011;3892;47.794;19.126;2023-07-16T13:32:49;9.00;;;8.20;;
7699;SDS011;3892;47.794;19.126;2023-07-16T13:35:21;11.25;;;10.07;;
7699;SDS011;3892;47.794;19.126;2023-07-16T13:37:50;10.02;;;8.13;;
7699;SDS011;3892;47.794;19.126;2023-07-16T13:40:18;9.10;;;8.30;;
7699;SDS011;3892;47.794;19.126;2023-07-16T13:42:48;9.48;;;7.32;;
7699;SDS011;3892;47.794;19.126;2023-07-16T13:45:19;11.85;;;7.50;;
7699;SDS011;3892;47.794;19.126;2023-07-16T13:47:48;7.88;;;6.80;;
7699;SDS011;3892;47.794;19.126;2023-07-16T13:50:18;8.63;;;6.50;;
7699;SDS011;3892;47.794;19.126;2023-07-16T13:52:47;8.63;;;7.00;;
7699;SDS011;3892;47.794;19.126;2023-07-16T13:55:15;8.75;;;7.20;;
7699;SDS011;3892;47.794;19.126;2023-07-16T13:57:45;8.20;;;7.20;;
7699;SDS011;3892;47.794;19.126;2023-07-16T14:00:14;8.65;;;7.07;;
7699;SDS011;3892;47.794;19.126;2023-07-16T14:02:44;8.10;;;7.50;;
7699;SDS011;3892;47.794;19.126;2023-07-16T14:05:12;7.57;;;6.85;;
7699;SDS011;3892;47.794;19.126;2023-07-16T14:07:40;7.45;;;6.63;;
7699;SDS011;3892;47.794;19.126;2023-07-16T14:10:09;8.05;;;6.60;;
7699;SDS011;3892;47.794;19.126;2023-07-16T14:12:38;8.18;;;6.65;;
7699;SDS011;3892;47.794;19.126;2023-07-16T14:15:08;6.88;;;6.22;;
7699;SDS011;3892;47.794;19.126;2023-07-16T14:17:37;7.72;;;6.43;;
7699;SDS011;3892;47.794;19.126;2023-07-16T14:20:06;7.93;;;5.57;;
7699;SDS011;3892;47.794;19.126;2023-07-16T14:22:36;7.43;;;5.20;;
7699;SDS011;3892;47.794;19.126;2023-07-16T14:25:05;7.57;;;5.60;;
7699;SDS011;3892;47.794;19.126;2023-07-16T14:27:35;7.53;;;5.45;;
7699;SDS011;3892;47.794;19.126;2023-07-16T14:30:03;5.35;;;4.85;;
7699;SDS011;3892;47.794;19.126;2023-07-16T14:32:35;5.53;;;5.00;;
7699;SDS011;3892;47.794;19.126;2023-07-16T14:35:05;9.30;;;5.95;;
7699;SDS011;3892;47.794;19.126;2023-07-16T14:37:38;8.70;;;5.22;;
7699;SDS011;3892;47.794;19.126;2023-07-16T14:40:08;6.03;;;5.43;;
7699;SDS011;3892;47.794;19.126;2023-07-16T14:42:38;6.82;;;5.00;;
7699;SDS011;3892;47.794;19.126;2023-07-16T14:45:07;6.00;;;5.07;;
7699;SDS011;3892;47.794;19.126;2023-07-16T14:47:38;8.23;;;5.35;;
7699;SDS011;3892;47.794;19.126;2023-07-16T14:50:08;6.93;;;5.47;;
7699;SDS011;3892;47.794;19.126;2023-07-16T14:52:36;7.70;;;5.00;;
7699;SDS011;3892;47.794;19.126;2023-07-16T14:55:06;7.20;;;4.97;;
7699;SDS011;3892;47.794;19.126;2023-07-16T14:57:36;6.30;;;5.65;;
7699;SDS011;3892;47.794;19.126;2023-07-16T15:00:06;27.35;;;10.18;;
7699;SDS011;3892;47.794;19.126;2023-07-16T15:02:39;16.48;;;9.00;;
7699;SDS011;3892;47.794;19.126;2023-07-16T15:05:08;6.35;;;5.10;;
7699;SDS011;3892;47.794;19.126;2023-07-16T15:07:37;6.70;;;5.20;;
7699;SDS011;3892;47.794;19.126;2023-07-16T15:10:08;5.57;;;4.85;;